Time;durP1;ratioP1;P1;durP2;ratioP2;P2;SDS_P1;SDS_P2;PMS_P1;PMS_P2;Temp;Humidity;BMP_temperature;BMP_pressure;BME280_temperature;BME280_humidity;BME280_pressure;Samples;Min_cycle;Max_cycle;Signal;HPM_P1;HPM_P2
2023/08/18 00:01:59;;;;;;;;;;;;;;;19.97;81.08;101770.92;108628;1267;124465;-85
2023/08/18 00:04:26;;;;;;;;;;;;;;;19.99;81.06;101776.64;108832;1265;58799;-86
2023/08/18 00:06:54;;;;;;;;;;;;;;;20.00;80.95;101778.60;108881;1264;58685;-86
2023/08/18 00:09:29;;;;;;;;;;;;;;;20.00;80.89;101784.11;108755;1263;123665;-85
2023/08/18 00:12:18;;;;;;;;;;;;;;;20.00;80.86;101788.91;107583;1264;65787;-86
2023/08/18 00:14:49;;;;;;;;;;;;;;;20.01;80.90;101790.35;107401;1268;125472;-85
2023/08/18 00:17:17;;;;;;;;;;;;;;;20.02;80.91;101789.45;107586;1266;59943;-85
2023/08/18 00:19:44;;;;;;;;;;;;;;;20.02;80.90;101784.12;107489;1262;125823;-85
2023/08/18 00:22:11;;;;;;;;;;;;;;;20.02;80.92;101785.54;107568;1263;75600;-85
2023/08/18 00:24:38;;;;;;;;;;;;;;;20.03;80.90;101788.58;108478;1264;66949;-85
2023/08/18 00:27:05;;;;;;;;;;;;;;;20.03;80.97;101788.39;108172;1264;125442;-86
2023/08/18 00:29:36;;;;;;;;;;;;;;;20.02;80.85;101784.48;108258;1268;59405;-85
2023/08/18 00:32:03;;;;;;;;;;;;;;;20.02;80.94;101783.94;108126;1264;125529;-85
2023/08/18 00:34:30;;;;;;;;;;;;;;;20.01;80.90;101783.05;108550;1264;76404;-86
2023/08/18 00:36:57;;;;;;;;;;;;;;;20.00;80.94;101783.41;108428;1267;66362;-86
2023/08/18 00:39:24;;;;;;;;;;;;;;;19.98;80.95;101784.48;108260;1264;72593;-86
2023/08/18 00:41:51;;;;;;;;;;;;;;;19.97;81.03;101785.01;108363;1263;59888;-86
2023/08/18 00:44:18;;;;;;;;;;;;;;;19.96;81.04;101780.55;108171;1267;125399;-86
2023/08/18 00:46:45;;;;;;;;;;;;;;;19.96;81.17;101777.69;108382;1264;73915;-85
2023/08/18 00:49:12;;;;;;;;;;;;;;;19.96;81.17;101775.02;108385;1266;125224;-86
2023/08/18 00:51:40;;;;;;;;;;;;;;;19.94;81.19;101770.39;108303;1263;72061;-86
2023/08/18 00:54:07;;;;;;;;;;;;;;;19.94;81.22;101767.89;108500;1263;59366;-85
2023/08/18 00:56:34;;;;;;;;;;;;;;;19.94;81.27;101768.08;108381;1262;126526;-85
2023/08/18 00:59:01;;;;;;;;;;;;;;;19.94;81.32;101766.29;108434;1262;75007;-85
2023/08/18 01:01:28;;;;;;;;;;;;;;;19.95;81.36;101767.36;108252;1267;125191;-85
2023/08/18 01:03:57;;;;;;;;;;;;;;;19.94;81.47;101762.55;108314;1262;71351;-86
2023/08/18 01:06:24;;;;;;;;;;;;;;;19.92;81.41;101767.00;108333;1263;60100;-85
2023/08/18 01:08:51;;;;;;;;;;;;;;;19.90;81.53;101759.68;108281;1267;126356;-86
2023/08/18 01:11:20;;;;;;;;;;;;;;;19.88;81.46;101753.10;108106;1266;75194;-86
2023/08/18 01:13:58;;;;;;;;;;;;;;;19.88;81.61;101753.27;108117;1268;125383;-86
2023/08/18 01:16:26;;;;;;;;;;;;;;;19.87;81.68;101751.66;108250;1263;72540;-86
2023/08/18 01:18:53;;;;;;;;;;;;;;;19.88;81.75;101748.46;108175;1264;59384;-85
2023/08/18 01:21:21;;;;;;;;;;;;;;;19.87;81.74;101747.75;108195;1264;126735;-86
2023/08/18 01:23:48;;;;;;;;;;;;;;;19.87;81.93;101740.61;108159;1263;75236;-86
2023/08/18 01:26:16;;;;;;;;;;;;;;;19.89;82.00;101737.77;108282;1262;126062;-85
2023/08/18 01:28:43;;;;;;;;;;;;;;;19.87;81.97;101736.52;108158;1262;71417;-86
2023/08/18 01:31:11;;;;;;;;;;;;;;;19.86;82.03;101729.75;108418;1263;125680;-86
2023/08/18 01:33:41;;;;;;;;;;;;;;;19.85;82.07;101725.11;108378;1264;61267;-86
2023/08/18 01:36:12;;;;;;;;;;;;;;;19.83;82.07;101722.09;108440;1264;74847;-85
2023/08/18 01:38:39;;;;;;;;;;;;;;;19.83;82.39;101720.13;108235;1267;125576;-86
2023/08/18 01:41:06;;;;;;;;;;;;;;;19.83;82.47;101722.80;108275;1268;72336;-85
2023/08/18 01:43:33;;;;;;;;;;;;;;;19.82;82.44;101724.59;108228;1264;125641;-85
2023/08/18 01:46:01;;;;;;;;;;;;;;;19.83;82.64;101725.29;108204;1267;60976;-85
2023/08/18 01:48:28;;;;;;;;;;;;;;;19.85;82.59;101716.21;108387;1267;74714;-85
2023/08/18 01:50:55;;;;;;;;;;;;;;;19.85;82.60;101714.80;108302;1263;126101;-85
2023/08/18 01:53:22;;;;;;;;;;;;;;;19.87;82.78;101717.64;108424;1267;73247;-86
2023/08/18 01:55:49;;;;;;;;;;;;;;;19.89;82.81;101717.47;108079;1264;125795;-85
2023/08/18 01:58:16;;;;;;;;;;;;;;;19.92;82.85;101715.15;108471;1264;60695;-85
2023/08/18 02:00:43;;;;;;;;;;;;;;;19.95;82.90;101710.71;108304;1264;73390;-85
2023/08/18 02:03:10;;;;;;;;;;;;;;;19.97;82.93;101715.17;108326;1262;125751;-85
2023/08/18 02:05:37;;;;;;;;;;;;;;;20.00;82.96;101714.46;108386;1264;72712;-86
2023/08/18 02:08:07;;;;;;;;;;;;;;;20.02;83.01;101711.26;108300;1264;125660;-86
2023/08/18 02:10:34;;;;;;;;;;;;;;;20.03;83.05;101711.08;108355;1262;59966;-86
2023/08/18 02:13:01;;;;;;;;;;;;;;;20.06;83.14;101702.16;108295;1262;125470;-85
2023/08/18 02:15:28;;;;;;;;;;;;;;;20.06;83.12;101690.59;108384;1267;67780;-86
2023/08/18 02:17:55;;;;;;;;;;;;;;;20.05;83.27;101685.77;108343;1262;71355;-85
2023/08/18 02:20:22;;;;;;;;;;;;;;;20.03;83.34;101662.27;108238;1263;125464;-85
2023/08/18 02:22:49;;;;;;;;;;;;;;;20.03;83.57;101659.94;108446;1264;59332;-85
2023/08/18 02:25:16;;;;;;;;;;;;;;;20.05;83.77;101657.80;108298;1262;125842;-86
2023/08/18 02:27:43;;;;;;;;;;;;;;;20.06;83.70;101650.50;108154;1262;67754;-86
2023/08/18 02:30:10;;;;;;;;;;;;;;;20.05;83.58;101672.95;108442;1266;72233;-86
2023/08/18 02:32:38;;;;;;;;;;;;;;;20.05;83.66;101679.37;108183;1263;125457;-86
2023/08/18 02:35:05;;;;;;;;;;;;;;;20.05;83.72;101682.40;108474;1266;59469;-85
2023/08/18 02:37:32;;;;;;;;;;;;;;;20.05;83.78;101680.98;108353;1262;125972;-86
2023/08/18 02:40:00;;;;;;;;;;;;;;;20.04;83.78;101680.61;108341;1264;65501;-86
2023/08/18 02:42:27;;;;;;;;;;;;;;;20.03;83.77;101680.61;108553;1262;73350;-86
2023/08/18 02:44:54;;;;;;;;;;;;;;;20.01;83.69;101680.60;108495;1261;125351;-85
2023/08/18 02:47:21;;;;;;;;;;;;;;;19.98;83.79;101679.52;108495;1262;59425;-86
2023/08/18 02:49:50;;;;;;;;;;;;;;;19.97;83.71;101698.60;108335;1263;125317;-86
2023/08/18 02:52:17;;;;;;;;;;;;;;;19.97;83.73;101696.64;108499;1262;65530;-87
2023/08/18 02:54:46;;;;;;;;;;;;;;;19.97;83.90;101693.24;108379;1262;73393;-87
2023/08/18 02:57:14;;;;;;;;;;;;;;;19.95;83.78;101699.49;108369;1262;125538;-87
2023/08/18 02:59:42;;;;;;;;;;;;;;;19.94;83.84;101700.55;108414;1267;59364;-86
2023/08/18 03:02:09;;;;;;;;;;;;;;;19.93;83.94;101701.27;108314;1264;125621;-86
2023/08/18 03:04:37;;;;;;;;;;;;;;;19.91;84.05;101701.96;108468;1262;65554;-86
2023/08/18 03:07:04;;;;;;;;;;;;;;;19.91;84.11;101705.52;108542;1261;124755;-86
2023/08/18 03:09:31;;;;;;;;;;;;;;;19.91;84.19;101706.96;108581;1262;59116;-86
2023/08/18 03:11:58;;;;;;;;;;;;;;;19.92;84.35;101709.98;107866;1262;61291;-85
2023/08/18 03:14:25;;;;;;;;;;;;;;;19.94;84.46;101710.70;107464;1264;125423;-85
2023/08/18 03:16:52;;;;;;;;;;;;;;;19.94;84.45;101714.09;107895;1267;67035;-86
2023/08/18 03:19:20;;;;;;;;;;;;;;;19.95;84.65;101711.42;108028;1262;124457;-86
2023/08/18 03:21:47;;;;;;;;;;;;;;;19.96;84.75;101714.45;107883;1263;60211;-86
2023/08/18 03:24:14;;;;;;;;;;;;;;;19.97;84.70;101716.04;107795;1263;61116;-86
2023/08/18 03:26:41;;;;;;;;;;;;;;;19.98;84.76;101716.77;107588;1266;123753;-85
2023/08/18 03:29:08;;;;;;;;;;;;;;;19.99;84.80;101720.52;107844;1262;65620;-86
2023/08/18 03:31:35;;;;;;;;;;;;;;;19.99;84.86;101717.84;107941;1262;125077;-85
2023/08/18 03:34:05;;;;;;;;;;;;;;;19.99;84.80;101716.42;107961;1264;59706;-84
2023/08/18 03:36:32;;;;;;;;;;;;;;;19.98;84.83;101719.27;107786;1264;61039;-84
2023/08/18 03:38:59;;;;;;;;;;;;;;;19.96;84.85;101716.77;107599;1263;124398;-84
2023/08/18 03:41:26;;;;;;;;;;;;;;;19.95;84.83;101721.04;107841;1265;68294;-85
2023/08/18 03:43:53;;;;;;;;;;;;;;;19.95;84.92;101719.44;108169;1264;124383;-85
2023/08/18 03:46:22;;;;;;;;;;;;;;;19.96;84.87;101723.54;108468;1265;59474;-85
2023/08/18 03:48:52;;;;;;;;;;;;;;;19.97;84.86;101727.45;108430;1264;59088;-85
2023/08/18 03:51:19;;;;;;;;;;;;;;;19.96;84.76;101736.00;108327;1262;123821;-87
2023/08/18 03:53:46;;;;;;;;;;;;;;;19.93;84.69;101738.32;108336;1262;65853;-84
2023/08/18 03:56:13;;;;;;;;;;;;;;;19.92;84.76;101736.36;108134;1264;123931;-85
2023/08/18 03:58:42;;;;;;;;;;;;;;;19.92;84.81;101735.98;108572;1262;59001;-86
2023/08/18 04:01:09;;;;;;;;;;;;;;;19.91;84.71;101730.65;108568;1267;124250;-86
2023/08/18 04:03:45;;;;;;;;;;;;;;;19.90;84.69;101725.67;108747;1262;73383;-87
2023/08/18 04:06:12;;;;;;;;;;;;;;;19.91;84.59;101726.38;108837;1262;65770;-86
2023/08/18 04:08:45;;;;;;;;;;;;;;;19.91;84.63;101726.02;108710;1262;123935;-85
2023/08/18 04:11:17;;;;;;;;;;;;;;;19.93;84.56;101724.23;108839;1262;61128;-86
2023/08/18 04:17:16;;;;;;;;;;;;;;;19.96;84.52;101721.23;108885;1261;73099;-85
2023/08/18 04:22:49;;;;;;;;;;;;;;;19.98;84.44;101722.11;107918;1264;72550;-85
2023/08/18 04:25:17;;;;;;;;;;;;;;;20.00;84.42;101728.71;107794;1262;125064;-86
2023/08/18 04:27:46;;;;;;;;;;;;;;;20.04;84.48;101724.98;108001;1262;61155;-84
2023/08/18 04:30:13;;;;;;;;;;;;;;;20.06;84.39;101726.39;107798;1267;73328;-85
2023/08/18 04:32:41;;;;;;;;;;;;;;;20.08;84.36;101723.91;107886;1262;125334;-84
2023/08/18 04:35:11;;;;;;;;;;;;;;;20.09;84.41;101716.25;107905;1262;73312;-84
2023/08/18 04:37:37;;;;;;;;;;;;;;;20.10;84.13;101713.22;107735;1262;125006;-84
2023/08/18 04:40:05;;;;;;;;;;;;;;;20.10;84.12;101706.64;107817;1264;61360;-85
2023/08/18 04:42:33;;;;;;;;;;;;;;;20.12;84.12;101697.70;108023;1264;75754;-84
2023/08/18 04:45:00;;;;;;;;;;;;;;;20.11;84.03;101698.25;107684;1262;125214;-85
2023/08/18 04:47:33;;;;;;;;;;;;;;;20.13;83.97;101703.96;108007;1262;73349;-84
2023/08/18 04:50:04;;;;;;;;;;;;;;;20.14;83.94;101707.34;107536;1262;125921;-84
2023/08/18 04:52:31;;;;;;;;;;;;;;;20.17;83.99;101714.48;107771;1261;60689;-84
2023/08/18 04:54:58;;;;;;;;;;;;;;;20.21;84.02;101716.79;107872;1262;74036;-84
2023/08/18 04:57:26;;;;;;;;;;;;;;;20.26;84.03;101719.29;107845;1267;68832;-86
2023/08/18 04:59:53;;;;;;;;;;;;;;;20.32;84.12;101721.43;107467;1268;72417;-84
2023/08/18 05:02:20;;;;;;;;;;;;;;;20.41;84.06;101725.89;107303;1264;125143;-84
2023/08/18 05:04:47;;;;;;;;;;;;;;;20.47;83.90;101734.45;107729;1263;59938;-84
2023/08/18 05:07:14;;;;;;;;;;;;;;;20.56;83.97;101729.27;107525;1262;125586;-85
2023/08/18 05:09:41;;;;;;;;;;;;;;;20.67;83.99;101729.12;107448;1264;65756;-86
2023/08/18 05:12:22;;;;;;;;;;;;;;;20.75;83.86;101733.39;107531;1262;72847;-85
2023/08/18 05:14:56;;;;;;;;;;;;;;;20.88;83.76;101739.97;107715;1263;126020;-89
2023/08/18 05:17:24;;;;;;;;;;;;;;;20.98;83.79;101738.88;107642;1264;60627;-86
2023/08/18 05:19:51;;;;;;;;;;;;;;;21.10;83.74;101745.27;107717;1266;125449;-85
2023/08/18 05:22:23;;;;;;;;;;;;;;;21.25;83.69;101754.50;107717;1264;67155;-86
2023/08/18 05:24:51;;;;;;;;;;;;;;;21.38;83.42;101750.71;107605;1263;72992;-86
2023/08/18 05:27:18;;;;;;;;;;;;;;;21.47;83.31;101751.24;107301;1263;124476;-87
2023/08/18 05:29:51;;;;;;;;;;;;;;;21.55;83.01;101752.27;107255;1262;59391;-87
2023/08/18 05:32:21;;;;;;;;;;;;;;;21.62;82.93;101753.69;107307;1266;124950;-85
2023/08/18 05:34:52;;;;;;;;;;;;;;;21.68;82.76;101751.69;107712;1266;66926;-85
2023/08/18 05:37:19;;;;;;;;;;;;;;;21.71;82.61;101745.95;107858;1262;125651;-85
2023/08/18 05:39:46;;;;;;;;;;;;;;;21.79;82.55;101738.77;107953;1266;59842;-87
2023/08/18 05:42:13;;;;;;;;;;;;;;;21.87;82.56;101742.99;107648;1262;59743;-87
2023/08/18 05:44:41;;;;;;;;;;;;;;;22.06;83.00;101737.16;107382;1261;126402;-87
2023/08/18 05:47:08;;;;;;;;;;;;;;;22.27;82.57;101730.94;107381;1263;66418;-87
2023/08/18 05:49:35;;;;;;;;;;;;;;;22.35;82.02;101735.90;107335;1262;125773;-87
2023/08/18 05:52:08;;;;;;;;;;;;;;;22.46;81.95;101745.83;107629;1264;59668;-87
2023/08/18 05:54:35;;;;;;;;;;;;;;;22.61;82.06;101760.71;107318;1262;61230;-85
2023/08/18 05:57:02;;;;;;;;;;;;;;;22.86;82.01;101770.33;107521;1264;126015;-86
2023/08/18 05:59:32;;;;;;;;;;;;;;;23.14;82.14;101768.09;107474;1262;65753;-87
2023/08/18 06:02:04;;;;;;;;;;;;;;;23.60;82.04;101762.00;108241;1268;126862;-87
2023/08/18 06:04:31;;;;;;;;;;;;;;;23.93;80.88;101756.38;108544;1262;59372;-86
2023/08/18 06:06:57;;;;;;;;;;;;;;;24.02;80.35;101753.39;108512;1263;59206;-85
2023/08/18 06:09:24;;;;;;;;;;;;;;;24.20;79.91;101757.05;108229;1262;125189;-85
2023/08/18 06:11:54;;;;;;;;;;;;;;;24.31;79.50;101753.66;108454;1264;66078;-86
2023/08/18 06:14:21;;;;;;;;;;;;;;;24.46;79.31;101753.59;108262;1265;126024;-86
2023/08/18 06:16:48;;;;;;;;;;;;;;;24.46;78.62;101755.02;108401;1264;59443;-86
2023/08/18 06:19:14;;;;;;;;;;;;;;;24.44;78.48;101754.16;108208;1263;126107;-87
2023/08/18 06:21:41;;;;;;;;;;;;;;;24.55;78.71;101751.12;108275;1262;76184;-87
2023/08/18 06:24:10;;;;;;;;;;;;;;;24.68;78.37;101748.39;108333;1262;67403;-85
2023/08/18 06:26:38;;;;;;;;;;;;;;;24.68;77.92;101749.11;108360;1262;127691;-88
2023/08/18 06:29:05;;;;;;;;;;;;;;;24.56;77.60;101751.48;108312;1263;59525;-88
2023/08/18 06:31:32;;;;;;;;;;;;;;;24.52;77.89;101754.77;108136;1268;125648;-87
2023/08/18 06:33:59;;;;;;;;;;;;;;;24.61;77.93;101755.69;108425;1267;75877;-88
2023/08/18 06:36:26;;;;;;;;;;;;;;;24.66;77.58;101761.71;108500;1266;68114;-88
2023/08/18 06:38:53;;;;;;;;;;;;;;;24.59;77.24;101768.12;107606;1264;123939;-87
2023/08/18 06:41:20;;;;;;;;;;;;;;;24.45;77.20;101770.83;107454;1263;61347;-87
2023/08/18 06:43:47;;;;;;;;;;;;;;;24.41;77.54;101769.64;107145;1264;125354;-90
2023/08/18 06:46:16;;;;;;;;;;;;;;;24.39;77.42;101769.67;107358;1268;75757;-87
2023/08/18 06:48:45;;;;;;;;;;;;;;;24.32;77.30;101773.91;107749;1264;65669;-87
2023/08/18 06:51:12;;;;;;;;;;;;;;;24.20;77.30;101769.42;107844;1264;125819;-87
2023/08/18 06:53:39;;;;;;;;;;;;;;;24.21;77.86;101775.14;107791;1268;59630;-87
2023/08/18 06:56:08;;;;;;;;;;;;;;;24.24;77.79;101776.36;107608;1264;124887;-87
2023/08/18 06:58:35;;;;;;;;;;;;;;;24.29;77.92;101775.76;107671;1264;74134;-89
2023/08/18 07:01:03;;;;;;;;;;;;;;;24.41;78.10;101777.89;108300;1262;125479;-88
2023/08/18 07:03:30;;;;;;;;;;;;;;;24.61;78.17;101773.27;108465;1262;73269;-88
2023/08/18 07:05:57;;;;;;;;;;;;;;;24.79;77.95;101759.14;108511;1262;59482;-88
2023/08/18 07:08:24;;;;;;;;;;;;;;;24.88;77.45;101760.23;108400;1262;124782;-88
2023/08/18 07:10:51;;;;;;;;;;;;;;;24.95;77.44;101764.42;108341;1268;74923;-87
2023/08/18 07:13:20;;;;;;;;;;;;;;;25.05;77.25;101753.45;108292;1262;126087;-88
2023/08/18 07:15:48;;;;;;;;;;;;;;;25.14;76.85;101751.85;108474;1262;72558;-88
2023/08/18 07:18:16;;;;;;;;;;;;;;;25.19;76.67;101753.00;108512;1262;59542;-88
2023/08/18 07:20:43;;;;;;;;;;;;;;;25.30;76.73;101743.11;108293;1264;125299;-87
2023/08/18 07:23:10;;;;;;;;;;;;;;;25.41;76.69;101741.09;108386;1262;74811;-88
2023/08/18 07:25:37;;;;;;;;;;;;;;;25.51;76.28;101745.55;108396;1262;125572;-88
2023/08/18 07:28:04;;;;;;;;;;;;;;;25.51;76.18;101740.85;108583;1264;72812;-86
2023/08/18 07:30:37;;;;;;;;;;;;;;;25.54;76.14;101739.92;108342;1264;59316;-86
2023/08/18 07:33:05;;;;;;;;;;;;;;;25.58;76.00;101737.86;107763;1261;125524;-87
2023/08/18 07:35:35;;;;;;;;;;;;;;;25.60;75.82;101739.75;108170;1262;73790;-87
2023/08/18 07:38:04;;;;;;;;;;;;;;;25.66;75.62;101734.43;108554;1262;123823;-88
2023/08/18 07:40:53;;;;;;;;;;;;;;;25.67;75.57;101723.81;108641;1264;72401;-87
2023/08/18 07:43:20;;;;;;;;;;;;;;;25.83;75.53;101723.27;108132;1263;125042;-87
2023/08/18 07:45:50;;;;;;;;;;;;;;;25.95;75.46;101714.91;108081;1263;61286;-96
2023/08/18 07:48:27;;;;;;;;;;;;;;;26.08;75.17;101717.13;108143;1262;73702;-94
2023/08/18 07:53:51;;;;;;;;;;;;;;;26.35;74.22;101718.45;107995;1259;77838;-93
2023/08/18 07:57:07;;;;;;;;;;;;;;;26.36;73.93;101711.02;108152;1258;124563;-89
2023/08/18 08:00:07;;;;;;;;;;;;;;;26.42;73.77;101720.80;107697;1260;59871;-90
2023/08/18 08:03:36;;;;;;;;;;;;;;;26.37;73.37;101722.16;108468;1264;124859;-89
2023/08/18 08:06:26;;;;;;;;;;;;;;;26.33;73.12;101722.11;107844;1273;65690;-89
2023/08/18 08:09:24;;;;;;;;;;;;;;;26.24;72.70;101723.77;107636;1274;64859;-87
2023/08/18 08:12:28;;;;;;;;;;;;;;;26.13;72.68;101722.94;107638;1270;58947;-90
2023/08/18 08:15:12;;;;;;;;;;;;;;;26.07;72.79;101724.70;108096;1266;123510;-86
2023/08/18 08:18:32;;;;;;;;;;;;;;;26.04;72.78;101735.77;108228;1267;74076;-87
2023/08/18 08:21:16;;;;;;;;;;;;;;;26.03;72.55;101739.20;108235;1267;125001;-87
2023/08/18 08:24:11;;;;;;;;;;;;;;;26.08;72.88;101734.58;108453;1267;62854;-85
2023/08/18 08:27:28;;;;;;;;;;;;;;;26.29;72.81;101730.66;108479;1263;124517;-86
2023/08/18 08:30:13;;;;;;;;;;;;;;;26.68;72.63;101733.79;108401;1269;61311;-85
2023/08/18 08:32:52;;;;;;;;;;;;;;;26.95;71.84;101732.00;107508;1264;125815;-85
2023/08/18 08:36:00;;;;;;;;;;;;;;;27.18;71.35;101721.81;107443;1264;68559;-86
2023/08/18 08:39:09;;;;;;;;;;;;;;;;;;;;;
2023/08/18 08:41:54;;;;;;;;;;;;;;;27.39;69.94;101701.74;107803;1261;59641;-86
2023/08/18 08:45:03;;;;;;;;;;;;;;;27.43;69.48;101696.77;108363;1260;124558;-88
2023/08/18 08:48:05;;;;;;;;;;;;;;;27.37;69.16;101692.98;108419;1263;74659;-88
2023/08/18 08:50:34;;;;;;;;;;;;;;;27.45;69.35;101690.23;108534;1260;124405;-90
2023/08/18 08:53:01;;;;;;;;;;;;;;;27.55;69.11;101687.75;108293;1264;64164;-90
2023/08/18 08:55:33;;;;;;;;;;;;;;;27.67;68.96;101682.14;107752;1264;60330;-88
2023/08/18 08:58:00;;;;;;;;;;;;;;;27.76;68.36;101677.19;107673;1260;60558;-87
2023/08/18 09:00:28;;;;;;;;;;;;;;;27.73;68.07;101672.37;107451;1260;66383;-88
2023/08/18 09:02:58;;;;;;;;;;;;;;;27.80;67.94;101672.70;107010;1260;124623;-89
2023/08/18 09:05:28;;;;;;;;;;;;;;;27.85;67.76;101675.45;107810;1260;63878;-88
2023/08/18 09:07:55;;;;;;;;;;;;;;;27.89;67.72;101674.79;107567;1260;124684;-89
2023/08/18 09:10:38;;;;;;;;;;;;;;;27.95;67.50;101674.77;107856;1260;61081;-88
2023/08/18 09:13:06;;;;;;;;;;;;;;;28.00;67.22;101673.19;107987;1267;65102;-89
2023/08/18 09:15:33;;;;;;;;;;;;;;;27.99;66.96;101673.20;108001;1259;124197;-89
2023/08/18 09:18:03;;;;;;;;;;;;;;;28.05;66.88;101684.01;107970;1261;62782;-90
2023/08/18 09:20:30;;;;;;;;;;;;;;;28.15;66.55;101689.62;108640;1259;124732;-90
2023/08/18 09:22:57;;;;;;;;;;;;;;;28.20;66.17;101692.73;108519;1260;59358;-89
2023/08/18 09:25:29;;;;;;;;;;;;;;;28.25;66.07;101698.52;108627;1260;77601;-90
2023/08/18 09:27:56;;;;;;;;;;;;;;;28.22;65.93;101704.20;107558;1260;124731;-89
2023/08/18 09:30:24;;;;;;;;;;;;;;;28.25;66.13;101709.50;107696;1259;63954;-89
2023/08/18 09:32:53;;;;;;;;;;;;;;;28.29;65.92;101709.73;107710;1266;124844;-87
2023/08/18 09:35:20;;;;;;;;;;;;;;;28.29;65.74;101712.98;107693;1260;59975;-88
2023/08/18 09:37:55;;;;;;;;;;;;;;;28.29;65.72;101715.15;107465;1260;123958;-89
2023/08/18 09:40:25;;;;;;;;;;;;;;;28.27;65.75;101717.57;107702;1259;60297;-89
2023/08/18 09:43:07;;;;;;;;;;;;;;;28.28;65.80;101719.16;107830;1262;64982;-90
2023/08/18 09:45:40;;;;;;;;;;;;;;;28.33;65.88;101725.84;107419;1260;123144;-88
2023/08/18 09:48:07;;;;;;;;;;;;;;;28.43;65.83;101732.20;107327;1267;60428;-88
2023/08/18 09:50:36;;;;;;;;;;;;;;;28.45;65.22;101737.36;107504;1265;125213;-89
2023/08/18 09:53:05;;;;;;;;;;;;;;;28.47;64.91;101741.24;107971;1260;61186;-89
2023/08/18 09:55:33;;;;;;;;;;;;;;;28.44;64.46;101740.64;107652;1261;64394;-90
2023/08/18 09:58:19;;;;;;;;;;;;;;;28.34;64.10;101735.36;108275;1260;59550;-90
2023/08/18 10:00:56;;;;;;;;;;;;;;;28.25;63.91;101735.35;108590;1265;59407;-89
2023/08/18 10:03:24;;;;;;;;;;;;;;;28.14;63.72;101734.98;108364;1269;125199;-88
2023/08/18 10:05:55;;;;;;;;;;;;;;;28.04;63.62;101738.01;108635;1260;59342;-88
2023/08/18 10:08:22;;;;;;;;;;;;;;;27.94;63.61;101733.98;108367;1260;124723;-88
2023/08/18 10:10:50;;;;;;;;;;;;;;;27.87;63.30;101734.73;108563;1267;59446;-89
2023/08/18 10:13:17;;;;;;;;;;;;;;;27.80;63.17;101735.66;108477;1260;59126;-90
2023/08/18 10:15:45;;;;;;;;;;;;;;;27.76;63.20;101737.79;107975;1267;125113;-90
2023/08/18 10:18:12;;;;;;;;;;;;;;;27.70;63.23;101730.92;107539;1260;68371;-88
2023/08/18 10:20:49;;;;;;;;;;;;;;;27.67;63.41;101731.36;107345;1267;124603;-88
2023/08/18 10:23:17;;;;;;;;;;;;;;;27.66;63.33;101729.23;107309;1260;61334;-89
2023/08/18 10:25:45;;;;;;;;;;;;;;;27.63;63.18;101726.45;107442;1261;124381;-89
2023/08/18 10:28:17;;;;;;;;;;;;;;;27.65;63.31;101723.49;107539;1264;75222;-88
2023/08/18 10:31:11;;;;;;;;;;;;;;;27.65;62.95;101723.86;107708;1261;59653;-89
2023/08/18 10:33:38;;;;;;;;;;;;;;;27.68;62.96;101728.08;108457;1260;123602;-90
2023/08/18 10:36:06;;;;;;;;;;;;;;;27.76;63.01;101732.89;108616;1261;59591;-90
2023/08/18 10:38:33;;;;;;;;;;;;;;;27.87;63.10;101727.86;107815;1259;124553;-90
2023/08/18 10:41:02;;;;;;;;;;;;;;;28.00;62.82;101721.70;107267;1259;66348;-89
2023/08/18 10:43:29;;;;;;;;;;;;;;;28.04;62.37;101719.24;107364;1267;60109;-88
2023/08/18 10:46:02;;;;;;;;;;;;;;;28.08;62.23;101712.96;107327;1260;125027;-88
2023/08/18 10:48:30;;;;;;;;;;;;;;;28.13;61.84;101710.46;107598;1264;61072;-87
2023/08/18 10:50:57;;;;;;;;;;;;;;;28.17;61.66;101707.27;107433;1260;124410;-88
2023/08/18 10:53:40;;;;;;;;;;;;;;;28.22;61.27;101703.10;108142;1259;67359;-90
2023/08/18 10:56:11;;;;;;;;;;;;;;;28.25;61.08;101699.96;108421;1260;124359;-90
2023/08/18 10:58:54;;;;;;;;;;;;;;;28.26;60.68;101699.91;108757;1260;71181;-88
2023/08/18 11:01:22;;;;;;;;;;;;;;;28.25;60.22;101702.29;107857;1266;59196;-89
2023/08/18 11:04:03;;;;;;;;;;;;;;;28.26;60.12;101706.04;107823;1259;59479;-89
2023/08/18 11:06:30;;;;;;;;;;;;;;;28.32;60.25;101708.53;107891;1260;75590;-89
2023/08/18 11:08:58;;;;;;;;;;;;;;;28.36;60.21;101715.27;108063;1266;124664;-88
2023/08/18 11:11:28;;;;;;;;;;;;;;;28.39;59.97;101715.17;108136;1260;62648;-88
2023/08/18 11:13:55;;;;;;;;;;;;;;;28.40;59.28;101715.67;108236;1260;124699;-91
2023/08/18 11:16:30;;;;;;;;;;;;;;;28.33;58.59;101713.91;107975;1259;59593;-83
2023/08/18 11:19:04;;;;;;;;;;;;;;;28.28;58.42;101714.48;108506;1260;66098;-83
2023/08/18 11:25:04;;;;;;;;;;;;;;;28.25;58.33;101720.52;106739;1255;76354;-83
2023/08/18 11:27:40;;;;;;;;;;;;;;;28.25;58.39;101720.71;107617;1260;124196;-83
2023/08/18 11:30:27;;;;;;;;;;;;;;;28.29;58.40;101720.58;108208;1260;61224;-83
2023/08/18 11:33:02;;;;;;;;;;;;;;;28.28;58.04;101722.96;107579;1260;124159;-84
2023/08/18 11:35:36;;;;;;;;;;;;;;;28.25;57.87;101725.93;107736;1260;59349;-86
2023/08/18 11:38:07;;;;;;;;;;;;;;;28.27;57.88;101721.88;108001;1260;124291;-87
2023/08/18 11:40:42;;;;;;;;;;;;;;;28.38;57.33;101729.13;107255;1261;59467;-89
2023/08/18 11:43:10;;;;;;;;;;;;;;;28.41;56.75;101730.82;105096;1260;2648210;-84
2023/08/18 11:45:39;;;;;;;;;;;;;;;28.42;56.27;101730.78;107075;1260;125013;-86
2023/08/18 11:48:41;;;;;;;;;;;;;;;28.48;56.30;101730.77;106957;1260;61240;-84
2023/08/18 11:51:12;;;;;;;;;;;;;;;28.66;56.35;101729.98;107380;1260;124326;-86
2023/08/18 11:53:53;;;;;;;;;;;;;;;28.88;56.44;101726.29;107345;1261;59390;-84
2023/08/18 11:56:23;;;;;;;;;;;;;;;29.14;56.63;101728.46;107281;1260;124439;-82
2023/08/18 11:58:53;;;;;;;;;;;;;;;29.37;56.32;101726.33;107046;1260;66303;-85
2023/08/18 12:01:38;;;;;;;;;;;;;;;29.56;55.90;101721.96;107110;1261;65560;-88
2023/08/18 12:04:09;;;;;;;;;;;;;;;29.73;55.49;101719.71;106996;1260;62781;-85
2023/08/18 12:06:36;;;;;;;;;;;;;;;29.90;55.03;101719.06;107388;1260;61177;-83
2023/08/18 12:09:12;;;;;;;;;;;;;;;30.03;54.41;101723.39;107266;1261;124818;-89
2023/08/18 12:11:39;;;;;;;;;;;;;;;30.07;53.84;101723.23;106904;1267;64836;-88
2023/08/18 12:14:06;;;;;;;;;;;;;;;30.13;53.41;101720.10;107048;1261;124524;-87
2023/08/18 12:16:36;;;;;;;;;;;;;;;30.17;53.01;101722.65;107216;1260;62758;-86
2023/08/18 12:19:11;;;;;;;;;;;;;;;30.19;52.79;101722.73;107261;1259;61244;-86
2023/08/18 12:21:39;;;;;;;;;;;;;;;30.21;52.61;101720.65;106996;1260;124284;-88
2023/08/18 12:24:06;;;;;;;;;;;;;;;30.20;52.40;101717.44;107189;1264;65893;-87
2023/08/18 12:26:37;;;;;;;;;;;;;;;30.21;52.23;101719.55;106986;1262;124502;-86
2023/08/18 12:29:10;;;;;;;;;;;;;;;30.23;52.16;101720.56;107541;1260;64072;-87
2023/08/18 12:31:38;;;;;;;;;;;;;;;30.19;52.01;101720.36;107277;1260;61197;-87
2023/08/18 12:34:16;;;;;;;;;;;;;;;30.15;52.05;101723.05;107356;1260;61149;-88
2023/08/18 12:36:56;;;;;;;;;;;;;;;30.21;52.35;101720.64;107450;1260;64488;-86
2023/08/18 12:39:29;;;;;;;;;;;;;;;30.31;52.47;101719.52;107060;1260;124138;-87
2023/08/18 12:41:56;;;;;;;;;;;;;;;30.41;52.10;101718.55;107164;1259;73888;-87
2023/08/18 12:44:35;;;;;;;;;;;;;;;30.42;51.61;101712.93;107310;1259;126569;-87
2023/08/18 12:47:08;;;;;;;;;;;;;;;30.33;51.12;101713.11;107467;1260;61264;-84
2023/08/18 12:49:49;;;;;;;;;;;;;;;30.26;50.97;101709.59;107263;1260;64922;-88
2023/08/18 12:52:16;;;;;;;;;;;;;;;30.21;50.62;101712.34;107374;1264;61161;-87
2023/08/18 12:54:45;;;;;;;;;;;;;;;30.12;50.37;101715.08;107367;1262;62534;-86
2023/08/18 12:57:12;;;;;;;;;;;;;;;30.02;50.19;101714.17;107245;1260;124183;-86